createdAt,value
2018-06-16T00:00:14.935Z,7.70
2018-06-16T00:02:43.814Z,7.30
2018-06-16T00:05:12.290Z,6.80
2018-06-16T00:07:40.628Z,6.93
2018-06-16T00:10:08.653Z,7.23
2018-06-16T00:12:37.007Z,6.90
2018-06-16T00:15:05.374Z,6.70
2018-06-16T00:17:33.725Z,6.63
2018-06-16T00:20:01.795Z,6.43
2018-06-16T00:22:29.978Z,6.70
2018-06-16T00:24:59.087Z,6.40
2018-06-16T00:27:28.559Z,6.40
2018-06-16T00:29:57.442Z,6.63
2018-06-16T00:32:26.329Z,6.30
2018-06-16T00:34:54.692Z,5.80
2018-06-16T00:37:23.911Z,5.97
2018-06-16T00:39:52.302Z,6.03
2018-06-16T00:42:20.389Z,6.20
2018-06-16T00:44:48.695Z,5.47
2018-06-16T00:47:17.156Z,6.13
2018-06-16T00:49:45.512Z,6.23
2018-06-16T00:52:13.870Z,5.97
2018-06-16T00:54:41.934Z,5.53
2018-06-16T00:57:21.449Z,5.40
2018-06-16T00:59:49.774Z,5.90
2018-06-16T01:02:18.518Z,5.50
2018-06-16T01:04:46.911Z,5.33
2018-06-16T01:07:15.263Z,5.33
2018-06-16T01:09:43.616Z,5.27
2018-06-16T01:12:11.940Z,5.20
2018-06-16T01:14:40.254Z,5.20
2018-06-16T01:17:08.577Z,5.30
2018-06-16T01:19:36.916Z,5.37
2018-06-16T01:22:05.276Z,5.10
2018-06-16T01:24:33.314Z,5.30
2018-06-16T01:27:01.636Z,5.27
2018-06-16T01:29:29.980Z,5.07
2018-06-16T01:31:58.374Z,5.20
2018-06-16T01:34:26.570Z,4.87
2018-06-16T01:36:54.947Z,5.27
2018-06-16T01:39:23.269Z,5.17
2018-06-16T01:41:51.731Z,4.87
2018-06-16T01:44:20.097Z,5.00
2018-06-16T01:46:48.563Z,5.00
2018-06-16T01:49:16.893Z,5.03
2018-06-16T01:51:45.259Z,4.60
2018-06-16T01:54:13.631Z,4.67
2018-06-16T01:56:41.973Z,4.67
2018-06-16T01:59:10.348Z,4.87
2018-06-16T02:01:39.035Z,4.90
2018-06-16T02:04:07.383Z,4.70
2018-06-16T02:06:35.433Z,4.63
2018-06-16T02:09:05.676Z,4.93
2018-06-16T02:11:33.707Z,5.00
2018-06-16T02:14:02.056Z,4.97
2018-06-16T02:16:30.387Z,4.50
2018-06-16T02:18:58.807Z,4.67
2018-06-16T02:21:27.239Z,4.77
2018-06-16T02:23:55.598Z,5.07
2018-06-16T02:26:23.946Z,4.67
2018-06-16T02:28:52.278Z,4.57
2018-06-16T02:31:20.694Z,4.63
2018-06-16T02:33:49.056Z,4.53
2018-06-16T02:36:17.405Z,4.60
2018-06-16T02:38:45.828Z,4.17
2018-06-16T02:41:14.178Z,4.80
2018-06-16T02:43:42.507Z,8.20
2018-06-16T02:46:10.852Z,5.10
2018-06-16T02:48:39.231Z,4.77
2018-06-16T02:51:07.554Z,4.67
2018-06-16T02:53:35.893Z,4.57
2018-06-16T02:56:04.224Z,5.00
2018-06-16T02:58:32.549Z,5.00
2018-06-16T03:01:00.902Z,4.50
2018-06-16T03:03:29.312Z,4.40
2018-06-16T03:05:57.666Z,4.77
2018-06-16T03:08:26.101Z,5.10
2018-06-16T03:10:54.438Z,5.13
2018-06-16T03:13:22.765Z,4.80
2018-06-16T03:15:51.119Z,5.07
2018-06-16T03:18:19.474Z,4.73
2018-06-16T03:20:47.825Z,4.70
2018-06-16T03:23:16.179Z,4.60
2018-06-16T03:25:44.524Z,4.67
2018-06-16T03:28:12.883Z,4.50
2018-06-16T03:30:41.219Z,4.47
2018-06-16T03:33:09.546Z,4.43
2018-06-16T03:35:38.109Z,4.40
2018-06-16T03:38:06.431Z,4.33
2018-06-16T03:40:34.770Z,4.67
2018-06-16T03:43:03.086Z,4.80
2018-06-16T03:45:31.438Z,4.50
2018-06-16T03:47:59.789Z,4.70
2018-06-16T03:50:28.136Z,4.37
2018-06-16T03:52:56.193Z,4.57
2018-06-16T03:55:24.556Z,4.50
2018-06-16T03:57:52.881Z,4.50
2018-06-16T04:00:21.334Z,4.90
2018-06-16T04:02:49.677Z,4.70
2018-06-16T04:05:18.030Z,4.07
2018-06-16T04:07:46.363Z,4.80
2018-06-16T04:10:15.036Z,4.60
2018-06-16T04:12:43.415Z,4.53
2018-06-16T04:15:11.742Z,4.30
2018-06-16T04:17:40.056Z,4.43
2018-06-16T04:20:08.384Z,6.77
2018-06-16T04:22:36.817Z,5.90
2018-06-16T04:25:05.173Z,5.23
2018-06-16T04:27:33.515Z,4.90
2018-06-16T04:30:01.848Z,5.40
2018-06-16T04:32:30.198Z,5.33
2018-06-16T04:34:58.528Z,6.40
2018-06-16T04:37:26.637Z,6.40
2018-06-16T04:39:55.108Z,6.13
2018-06-16T04:42:23.445Z,5.47
2018-06-16T04:44:51.769Z,6.37
2018-06-16T04:47:20.104Z,6.57
2018-06-16T04:49:48.468Z,6.90
2018-06-16T04:52:16.854Z,12.43
2018-06-16T04:54:45.158Z,10.60
2018-06-16T04:57:13.484Z,10.20
2018-06-16T04:59:41.813Z,9.43
2018-06-16T05:02:10.178Z,6.63
2018-06-16T05:04:38.238Z,5.97
2018-06-16T05:07:06.427Z,6.03
2018-06-16T05:09:34.738Z,5.50
2018-06-16T05:12:03.119Z,5.67
2018-06-16T05:14:31.451Z,8.13
2018-06-16T05:16:59.545Z,10.13
2018-06-16T05:19:27.825Z,11.70
2018-06-16T05:21:56.233Z,47.63
2018-06-16T05:24:24.519Z,20.30
2018-06-16T05:26:52.877Z,19.20
2018-06-16T05:29:21.301Z,15.93
2018-06-16T05:31:49.368Z,14.30
2018-06-16T05:34:17.711Z,13.93
2018-06-16T05:36:46.074Z,13.33
2018-06-16T05:39:14.437Z,13.47
2018-06-16T05:41:42.762Z,13.07
2018-06-16T05:44:11.107Z,12.07
2018-06-16T05:46:39.422Z,9.27
2018-06-16T05:49:07.757Z,8.47
2018-06-16T05:51:36.067Z,8.50
2018-06-16T05:54:04.415Z,8.90
2018-06-16T05:56:32.726Z,7.97
2018-06-16T05:59:01.081Z,7.87
2018-06-16T06:01:29.437Z,7.00
2018-06-16T06:03:58.042Z,8.27
2018-06-16T06:06:26.376Z,7.70
2018-06-16T06:08:54.719Z,7.30
2018-06-16T06:11:23.070Z,7.50
2018-06-16T06:13:51.662Z,7.00
2018-06-16T06:16:19.985Z,6.77
2018-06-16T06:18:48.383Z,7.10
2018-06-16T06:21:16.701Z,6.27
2018-06-16T06:23:45.037Z,6.30
2018-06-16T06:26:13.398Z,6.20
2018-06-16T06:28:41.889Z,6.00
2018-06-16T06:31:10.194Z,6.17
2018-06-16T06:33:38.523Z,6.27
2018-06-16T06:36:06.837Z,5.83
2018-06-16T06:38:35.178Z,5.90
2018-06-16T06:41:03.596Z,5.57
2018-06-16T06:43:31.998Z,5.70
2018-06-16T06:46:00.350Z,5.43
2018-06-16T06:48:28.707Z,5.40
2018-06-16T06:50:57.213Z,5.50
2018-06-16T06:53:25.603Z,5.40
2018-06-16T06:55:54.072Z,5.27
2018-06-16T06:58:22.425Z,4.87
2018-06-16T07:00:50.771Z,5.00
2018-06-16T07:03:19.094Z,4.60
2018-06-16T07:05:47.434Z,4.67
2018-06-16T07:08:15.770Z,4.90
2018-06-16T07:10:44.193Z,4.67
2018-06-16T07:13:12.475Z,5.00
2018-06-16T07:15:40.798Z,4.70
2018-06-16T07:18:09.126Z,4.50
2018-06-16T07:20:37.615Z,4.90
2018-06-16T07:23:05.974Z,4.73
2018-06-16T07:25:34.334Z,4.30
2018-06-16T07:28:02.662Z,4.70
2018-06-16T07:30:30.988Z,4.30
2018-06-16T07:32:59.070Z,4.10
2018-06-16T07:35:27.454Z,4.47
2018-06-16T07:37:55.810Z,4.20
2018-06-16T07:40:24.135Z,4.60
2018-06-16T07:42:52.458Z,4.20
2018-06-16T07:45:20.826Z,4.50
2018-06-16T07:47:49.156Z,4.10
2018-06-16T07:50:17.521Z,4.37
2018-06-16T07:52:45.851Z,4.40
2018-06-16T07:55:14.211Z,4.10
2018-06-16T07:57:42.544Z,4.20
2018-06-16T08:00:10.603Z,3.97
2018-06-16T08:02:39.039Z,3.87
2018-06-16T08:05:07.894Z,4.13
2018-06-16T08:07:36.270Z,4.07
2018-06-16T08:10:04.652Z,4.13
2018-06-16T08:12:33.023Z,3.93
2018-06-16T08:15:01.656Z,4.00
2018-06-16T08:17:30.012Z,4.40
2018-06-16T08:19:58.365Z,3.97
2018-06-16T08:22:26.735Z,4.00
2018-06-16T08:24:55.144Z,4.20
2018-06-16T08:27:23.480Z,3.90
2018-06-16T08:29:51.542Z,4.10
2018-06-16T08:32:19.931Z,3.90
2018-06-16T08:34:48.539Z,4.20
2018-06-16T08:37:16.828Z,3.87
2018-06-16T08:39:45.223Z,4.13
2018-06-16T08:42:13.568Z,4.07
2018-06-16T08:44:42.255Z,4.07
2018-06-16T08:47:10.598Z,4.23
2018-06-16T08:49:38.662Z,4.23
2018-06-16T08:52:06.985Z,4.33
2018-06-16T08:54:35.344Z,4.50
2018-06-16T08:57:03.685Z,4.20
2018-06-16T08:59:32.011Z,4.10
2018-06-16T09:02:00.348Z,4.50
2018-06-16T09:04:28.706Z,4.33
2018-06-16T09:06:57.016Z,4.30
2018-06-16T09:09:25.108Z,4.17
2018-06-16T09:11:53.418Z,3.83
2018-06-16T09:14:21.802Z,4.20
2018-06-16T09:16:50.142Z,4.10
2018-06-16T09:19:18.478Z,4.03
2018-06-16T09:21:46.810Z,4.10
2018-06-16T09:24:15.191Z,4.37
2018-06-16T09:26:44.287Z,4.13
2018-06-16T09:29:12.609Z,4.30
2018-06-16T09:31:41.012Z,3.97
2018-06-16T09:34:09.303Z,3.90
2018-06-16T09:36:37.663Z,4.10
2018-06-16T09:39:08.441Z,4.03
2018-06-16T09:41:36.815Z,3.80
2018-06-16T09:44:05.395Z,4.27
2018-06-16T09:46:33.719Z,4.40
2018-06-16T09:49:02.166Z,4.40
2018-06-16T09:51:30.534Z,4.37
2018-06-16T09:53:58.888Z,4.20
2018-06-16T09:56:27.592Z,4.07
2018-06-16T09:58:56.019Z,4.20
2018-06-16T10:01:24.412Z,4.10
2018-06-16T10:03:52.803Z,3.90
2018-06-16T10:06:21.203Z,3.90
2018-06-16T10:08:49.606Z,3.87
2018-06-16T10:11:18.032Z,4.10
2018-06-16T10:13:46.357Z,4.40
2018-06-16T10:16:14.841Z,4.00
2018-06-16T10:18:43.378Z,4.17
2018-06-16T10:21:11.796Z,4.40
2018-06-16T10:23:40.073Z,4.13
2018-06-16T10:26:08.458Z,4.40
2018-06-16T10:28:36.791Z,3.97
2018-06-16T10:31:05.288Z,4.30
2018-06-16T10:33:33.669Z,4.23
2018-06-16T10:36:02.007Z,4.40
2018-06-16T10:38:30.861Z,4.30
2018-06-16T10:40:59.455Z,4.43
2018-06-16T10:43:27.819Z,3.93
2018-06-16T10:45:57.005Z,4.10
2018-06-16T10:48:25.345Z,4.47
2018-06-16T10:50:53.690Z,4.30
2018-06-16T10:53:22.416Z,8.90
2018-06-16T10:55:50.808Z,9.97
2018-06-16T10:58:19.147Z,9.87
2018-06-16T11:00:47.476Z,9.77
2018-06-16T11:03:15.917Z,9.80
2018-06-16T11:05:44.287Z,9.23
2018-06-16T11:08:12.633Z,9.13
2018-06-16T11:10:40.958Z,8.80
2018-06-16T11:13:09.326Z,8.57
2018-06-16T11:15:37.763Z,8.00
2018-06-16T11:18:06.139Z,8.07
2018-06-16T11:20:34.203Z,7.53
2018-06-16T11:23:02.615Z,7.77
2018-06-16T11:25:31.004Z,7.97
2018-06-16T11:27:59.439Z,7.50
2018-06-16T11:30:27.803Z,6.60
2018-06-16T11:32:56.173Z,7.30
2018-06-16T11:35:24.525Z,6.77
2018-06-16T11:37:52.883Z,6.50
2018-06-16T11:40:21.231Z,6.53
2018-06-16T11:42:49.628Z,5.53
2018-06-16T11:45:17.769Z,6.10
2018-06-16T11:47:46.127Z,5.70
2018-06-16T11:50:14.444Z,5.43
2018-06-16T11:52:42.541Z,5.60
2018-06-16T11:55:10.857Z,5.43
2018-06-16T11:57:39.268Z,5.13
2018-06-16T12:00:07.553Z,5.30
2018-06-16T12:02:35.703Z,5.13
2018-06-16T12:05:04.050Z,5.47
2018-06-16T12:07:32.389Z,5.53
2018-06-16T12:10:00.759Z,4.70
2018-06-16T12:12:28.809Z,4.90
2018-06-16T12:14:57.174Z,5.50
2018-06-16T12:17:25.510Z,5.10
2018-06-16T12:19:53.805Z,5.13
2018-06-16T12:22:22.197Z,5.20
2018-06-16T12:24:50.535Z,4.77
2018-06-16T12:27:19.027Z,4.70
2018-06-16T12:29:47.441Z,4.43
2018-06-16T12:32:15.719Z,4.83
2018-06-16T12:34:44.078Z,4.73
2018-06-16T12:37:12.443Z,4.83
2018-06-16T12:39:40.917Z,4.57
2018-06-16T12:42:09.307Z,4.70
2018-06-16T12:44:37.669Z,4.70
2018-06-16T12:47:06.052Z,4.33
2018-06-16T12:49:34.419Z,4.87
2018-06-16T12:52:02.819Z,4.30
2018-06-16T12:54:31.227Z,4.50
2018-06-16T12:56:59.591Z,4.80
2018-06-16T12:59:27.948Z,4.40
2018-06-16T13:01:56.306Z,4.70
2018-06-16T13:04:24.657Z,4.20
2018-06-16T13:06:52.711Z,4.50
2018-06-16T13:09:21.050Z,4.40
2018-06-16T13:11:49.428Z,4.20
2018-06-16T13:14:17.801Z,4.30
2018-06-16T13:16:46.130Z,4.43
2018-06-16T13:19:14.173Z,4.30
2018-06-16T13:21:42.494Z,4.30
2018-06-16T13:24:10.821Z,4.50
2018-06-16T13:26:39.203Z,4.43
2018-06-16T13:29:07.539Z,4.30
2018-06-16T13:31:35.889Z,4.50
2018-06-16T13:34:03.922Z,4.30
2018-06-16T13:36:32.315Z,4.33
2018-06-16T13:39:00.614Z,4.23
2018-06-16T13:41:29.632Z,4.17
2018-06-16T13:43:57.947Z,4.47
2018-06-16T13:46:26.389Z,4.33
2018-06-16T13:48:54.764Z,4.43
2018-06-16T13:51:23.073Z,4.40
2018-06-16T13:53:51.408Z,4.40
2018-06-16T13:56:19.769Z,4.80
2018-06-16T13:58:48.116Z,4.30
2018-06-16T14:01:16.497Z,4.30
2018-06-16T14:03:45.008Z,4.47
2018-06-16T14:06:13.464Z,4.30
2018-06-16T14:08:41.818Z,4.37
2018-06-16T14:11:10.198Z,4.23
2018-06-16T14:13:38.589Z,4.30
2018-06-16T14:16:06.934Z,4.13
2018-06-16T14:18:35.552Z,4.00
2018-06-16T14:21:03.895Z,4.40
2018-06-16T14:23:32.411Z,4.33
2018-06-16T14:26:00.786Z,3.90
2018-06-16T14:28:29.197Z,4.10
2018-06-16T14:30:57.544Z,3.77
2018-06-16T14:33:25.942Z,4.17
2018-06-16T14:35:54.291Z,4.17
2018-06-16T14:38:22.678Z,4.83
2018-06-16T14:40:51.018Z,4.33
2018-06-16T14:43:19.353Z,4.60
2018-06-16T14:45:47.702Z,4.40
2018-06-16T14:48:16.039Z,4.17
2018-06-16T14:50:44.824Z,4.37
2018-06-16T14:53:13.202Z,4.10
2018-06-16T14:55:41.564Z,4.10
2018-06-16T14:58:09.958Z,4.07
2018-06-16T15:00:38.337Z,4.03
2018-06-16T15:03:06.715Z,4.00
2018-06-16T15:05:35.041Z,4.17
2018-06-16T15:08:03.480Z,4.40
2018-06-16T15:10:31.947Z,4.00
2018-06-16T15:13:00.336Z,4.37
2018-06-16T15:15:28.689Z,4.40
2018-06-16T15:17:57.033Z,4.33
2018-06-16T15:20:25.392Z,4.60
2018-06-16T15:22:53.728Z,4.67
2018-06-16T15:25:21.781Z,4.47
2018-06-16T15:27:49.840Z,4.13
2018-06-16T15:30:17.925Z,4.20
2018-06-16T15:32:46.245Z,4.07
2018-06-16T15:35:14.652Z,4.37
2018-06-16T15:37:42.999Z,4.40
2018-06-16T15:40:11.437Z,4.30
2018-06-16T15:42:39.791Z,4.50
2018-06-16T15:45:08.144Z,4.30
2018-06-16T15:47:36.514Z,4.23
2018-06-16T15:50:04.866Z,4.40
2018-06-16T15:52:33.267Z,4.57
2018-06-16T15:55:01.637Z,4.43
2018-06-16T15:57:29.958Z,4.10
2018-06-16T15:59:58.289Z,4.13
2018-06-16T16:02:26.621Z,4.20
2018-06-16T16:04:54.718Z,4.43
2018-06-16T16:07:23.073Z,4.33
2018-06-16T16:09:51.412Z,4.30
2018-06-16T16:12:19.762Z,4.00
2018-06-16T16:14:48.078Z,4.40
2018-06-16T16:17:16.460Z,4.63
2018-06-16T16:19:44.778Z,4.43
2018-06-16T16:22:13.110Z,4.67
2018-06-16T16:24:41.446Z,4.30
2018-06-16T16:27:09.799Z,4.20
2018-06-16T16:29:38.189Z,4.60
2018-06-16T16:32:06.626Z,4.40
2018-06-16T16:34:34.991Z,4.63
2018-06-16T16:37:03.335Z,4.10
2018-06-16T16:39:31.677Z,4.53
2018-06-16T16:42:00.019Z,5.07
2018-06-16T16:44:28.351Z,4.50
2018-06-16T16:46:56.860Z,4.80
2018-06-16T16:49:25.261Z,4.80
2018-06-16T16:51:53.595Z,5.00
2018-06-16T16:54:22.076Z,4.87
2018-06-16T16:56:50.479Z,4.57
2018-06-16T16:59:18.822Z,4.60
2018-06-16T17:01:47.211Z,4.57
2018-06-16T17:04:15.613Z,4.30
2018-06-16T17:06:43.960Z,4.27
2018-06-16T17:09:12.588Z,4.47
2018-06-16T17:11:40.988Z,4.50
2018-06-16T17:14:09.465Z,4.73
2018-06-16T17:16:37.846Z,4.50
2018-06-16T17:19:06.228Z,5.20
2018-06-16T17:21:34.694Z,5.07
2018-06-16T17:24:03.082Z,5.17
2018-06-16T17:26:32.351Z,4.70
2018-06-16T17:29:00.679Z,4.80
2018-06-16T17:31:29.048Z,5.10
2018-06-16T17:33:57.134Z,4.90
2018-06-16T17:36:25.474Z,4.90
2018-06-16T17:38:53.824Z,4.80
2018-06-16T17:41:22.154Z,5.10
2018-06-16T17:43:50.781Z,4.90
2018-06-16T17:46:19.144Z,4.93
2018-06-16T17:48:47.522Z,4.87
2018-06-16T17:51:15.949Z,5.10
2018-06-16T17:53:44.257Z,4.80
2018-06-16T17:56:12.774Z,4.77
2018-06-16T17:58:41.208Z,5.00
2018-06-16T18:01:09.559Z,4.90
2018-06-16T18:03:37.919Z,4.47
2018-06-16T18:06:06.310Z,4.97
2018-06-16T18:08:34.719Z,5.13
2018-06-16T18:11:03.056Z,5.17
2018-06-16T18:13:31.435Z,5.27
2018-06-16T18:15:59.811Z,5.00
2018-06-16T18:18:28.208Z,4.87
2018-06-16T18:20:56.593Z,4.97
2018-06-16T18:23:25.005Z,4.93
2018-06-16T18:25:53.393Z,5.20
2018-06-16T18:28:22.351Z,5.10
2018-06-16T18:30:50.795Z,5.30
2018-06-16T18:33:19.314Z,5.40
2018-06-16T18:35:47.679Z,5.03
2018-06-16T18:38:15.747Z,5.00
2018-06-16T18:40:43.837Z,5.17
2018-06-16T18:43:12.300Z,5.40
2018-06-16T18:45:40.630Z,5.27
2018-06-16T18:48:08.983Z,5.17
2018-06-16T18:50:37.354Z,5.70
2018-06-16T18:53:05.912Z,26.60
2018-06-16T18:55:34.287Z,18.97
2018-06-16T18:58:02.651Z,12.43
2018-06-16T19:00:31.013Z,24.37
2018-06-16T19:02:59.358Z,19.90
2018-06-16T19:05:27.761Z,16.03
2018-06-16T19:07:56.126Z,14.83
2018-06-16T19:10:24.450Z,13.57
2018-06-16T19:12:52.903Z,13.53
2018-06-16T19:15:21.231Z,14.07
2018-06-16T19:17:49.590Z,11.20
2018-06-16T19:20:17.649Z,12.87
2018-06-16T19:22:45.985Z,11.67
2018-06-16T19:25:14.350Z,12.07
2018-06-16T19:27:42.751Z,10.80
2018-06-16T19:30:11.137Z,11.90
2018-06-16T19:32:39.498Z,10.87
2018-06-16T19:35:07.908Z,11.17
2018-06-16T19:37:36.321Z,10.57
2018-06-16T19:40:04.376Z,10.97
2018-06-16T19:42:32.541Z,10.50
2018-06-16T19:45:00.932Z,9.37
2018-06-16T19:47:28.990Z,8.93
2018-06-16T19:49:57.423Z,9.63
2018-06-16T19:52:25.809Z,10.23
2018-06-16T19:54:54.162Z,9.50
2018-06-16T19:57:22.635Z,9.27
2018-06-16T19:59:51.003Z,9.07
2018-06-16T20:02:19.378Z,8.77
2018-06-16T20:04:47.715Z,8.63
2018-06-16T20:07:16.092Z,9.23
2018-06-16T20:09:44.447Z,8.47
2018-06-16T20:12:12.797Z,8.60
2018-06-16T20:14:41.194Z,8.17
2018-06-16T20:17:09.545Z,8.47
2018-06-16T20:19:37.990Z,8.33
2018-06-16T20:22:06.381Z,8.30
2018-06-16T20:24:34.694Z,7.93
2018-06-16T20:27:03.064Z,8.43
2018-06-16T20:29:31.387Z,8.00
2018-06-16T20:31:59.738Z,7.90
2018-06-16T20:34:28.134Z,7.97
2018-06-16T20:36:56.452Z,8.50
2018-06-16T20:39:24.534Z,8.40
2018-06-16T20:41:52.918Z,8.40
2018-06-16T20:44:21.518Z,8.00
2018-06-16T20:46:49.844Z,8.67
2018-06-16T20:49:18.161Z,9.27
2018-06-16T20:51:46.535Z,9.17
2018-06-16T20:54:15.502Z,9.30
2018-06-16T20:56:43.578Z,8.57
2018-06-16T20:59:11.749Z,8.80
2018-06-16T21:01:39.910Z,8.83
2018-06-16T21:04:08.248Z,8.90
2018-06-16T21:06:36.578Z,8.60
2018-06-16T21:09:06.665Z,8.70
2018-06-16T21:11:35.126Z,8.83
2018-06-16T21:14:03.454Z,8.63
2018-06-16T21:16:32.211Z,9.20
2018-06-16T21:19:00.555Z,9.30
2018-06-16T21:21:29.021Z,8.77
2018-06-16T21:23:57.384Z,9.20
2018-06-16T21:26:25.751Z,9.03
2018-06-16T21:28:54.113Z,10.07
2018-06-16T21:31:22.492Z,9.80
2018-06-16T21:33:51.162Z,9.40
2018-06-16T21:36:19.558Z,9.17
2018-06-16T21:38:48.065Z,9.93
2018-06-16T21:41:16.502Z,10.00
2018-06-16T21:43:44.817Z,9.73
2018-06-16T21:46:12.879Z,9.30
2018-06-16T21:48:41.226Z,9.30
2018-06-16T21:51:09.573Z,9.27
2018-06-16T21:53:37.977Z,9.47
2018-06-16T21:56:06.335Z,9.33
2018-06-16T21:58:34.658Z,9.67
2018-06-16T22:01:03.068Z,9.30
2018-06-16T22:03:31.411Z,8.90
2018-06-16T22:05:59.927Z,9.67
2018-06-16T22:08:31.178Z,8.93
2018-06-16T22:11:00.030Z,9.67
2018-06-16T22:13:28.494Z,9.20
2018-06-16T22:15:56.870Z,9.13
2018-06-16T22:18:25.416Z,8.80
2018-06-16T22:20:53.780Z,9.27
2018-06-16T22:23:22.093Z,9.23
2018-06-16T22:25:50.736Z,8.97
2018-06-16T22:28:19.102Z,9.13
2018-06-16T22:30:47.450Z,9.20
2018-06-16T22:33:15.814Z,8.70
2018-06-16T22:35:44.169Z,8.80
2018-06-16T22:38:12.567Z,8.23
2018-06-16T22:40:40.871Z,8.47
2018-06-16T22:43:08.913Z,8.43
2018-06-16T22:45:37.277Z,8.53
2018-06-16T22:48:05.599Z,8.83
2018-06-16T22:50:34.035Z,8.27
2018-06-16T22:53:02.382Z,8.23
2018-06-16T22:55:30.793Z,8.10
2018-06-16T22:57:59.142Z,8.30
2018-06-16T23:00:28.154Z,8.00
2018-06-16T23:02:57.649Z,7.93
2018-06-16T23:05:25.995Z,7.83
2018-06-16T23:07:54.800Z,8.47
2018-06-16T23:10:23.935Z,8.23
2018-06-16T23:12:52.267Z,7.90
2018-06-16T23:15:20.635Z,8.07
2018-06-16T23:17:49.013Z,8.33
2018-06-16T23:20:17.616Z,8.30
2018-06-16T23:22:45.964Z,8.53
2018-06-16T23:25:14.370Z,8.07
2018-06-16T23:27:42.786Z,8.90
2018-06-16T23:30:11.231Z,9.93
2018-06-16T23:32:39.600Z,9.20
2018-06-16T23:35:07.958Z,9.97
2018-06-16T23:37:36.390Z,9.23
2018-06-16T23:40:04.749Z,9.07
2018-06-16T23:42:33.143Z,9.23
2018-06-16T23:45:01.493Z,9.03
2018-06-16T23:47:29.869Z,9.30
2018-06-16T23:49:58.258Z,8.63
2018-06-16T23:52:26.618Z,8.50
2018-06-16T23:54:55.401Z,8.30
2018-06-16T23:57:23.733Z,8.00
2018-06-16T23:59:52.063Z,8.20
